KJAC

Jackson Hole Airport

Jackson, Wyoming, USA
KJAC 211743Z 2118/2218 VRB05KT P6SM SKC FM211900 20014G20KT P6SM VCTS SCT080CB BKN120 FM220000 20011KT P6SM SCT150 FM220900 20006KT P6SM VCSH SCT050 BKN080 AMD LTD TO CLD VIS AND WIND
Issued Valid From Valid To
Jun-21 @ 17:43 UTC
(25 minutes ago)
Jun-21 @ 18:00 UTC
(8 minutes ago)
Jun-22 @ 18:00 UTC
(in 24 hours)
Jun-21 @ 18:00 to Jun-21 @ 19:00
KJAC 211743Z 2118/2218 VRB05KT P6SM SKC
Wind Visibility Clouds
Variable at 5 knots Greater than 6 miles
  • Clear skies
From Jun-21 @ 19:00 to Jun-22 @ 00:00
FM211900 20014G20KT P6SM VCTS SCT080CB BKN120
Wind Visibility Clouds Conditions
200° at 14 knots
 Gusting to 20 knots
Greater than 6 miles
  • Scattered at 8,000' AGL
  • Broken at 12,000' AGL
  • Area Thunderstorm
From Jun-22 @ 00:00 to Jun-22 @ 09:00
FM220000 20011KT P6SM SCT150
Wind Visibility Clouds
200° at 11 knots Greater than 6 miles
  • Scattered at 15,000' AGL
From Jun-22 @ 09:00 to Jun-22 @ 18:00
FM220900 20006KT P6SM VCSH SCT050 BKN080 AMD LTD TO CLD VIS AND WIND
Wind Visibility Clouds
200° at 6 knots Greater than 6 miles
  • Scattered at 5,000' AGL
  • Broken at 8,000' AGL
KJAC 211743Z 2118/2218 VRB05KT P6SM SKC FM211900 20014G20KT P6SM VCTS SCT080CB BKN120 FM220000 20011KT P6SM SCT150 FM220900 20006KT P6SM VCSH SCT050 BKN080 AMD LTD TO CLD VIS AND WIND
Issued Jun-21 @ 17:43 UTC
(25 minutes ago)
Valid From Jun-21 @ 18:00 UTC
(8 minutes ago)
Valid To Jun-22 @ 18:00 UTC
(in 24 hours)
Jun-21 @ 18:00 - Jun-21 @ 19:00
Wind Visibility
Variable at 5 knots Greater than 6 miles
Clouds
  • Clear skies
From Jun-21 @ 19:00 - Jun-22 @ 00:00
Wind Visibility
200° at 14 knots
 Gusting to 20 knots
Greater than 6 miles
Clouds
  • Scattered at 8,000' AGL
  • Broken at 12,000' AGL
Conditions
  • Area Thunderstorm
From Jun-22 @ 00:00 - Jun-22 @ 09:00
Wind Visibility
200° at 11 knots Greater than 6 miles
Clouds
  • Scattered at 15,000' AGL
From Jun-22 @ 09:00 - Jun-22 @ 18:00
Wind Visibility
200° at 6 knots Greater than 6 miles
Clouds
  • Scattered at 5,000' AGL
  • Broken at 8,000' AGL